Time;durP1;ratioP1;P1;durP2;ratioP2;P2;SDS_P1;SDS_P2;PMS_P1;PMS_P2;Temp;Humidity;BMP_temperature;BMP_pressure;BME280_temperature;BME280_humidity;BME280_pressure;Samples;Min_cycle;Max_cycle;Signal;HPM_P1;HPM_P2
2023/08/25 00:00:05;;;;;;;15.03;11.90;;;;;;;;;;4892018;29;20647;-64
2023/08/25 00:02:40;;;;;;;12.70;11.57;;;;;;;;;;4892760;29;20618;-64
2023/08/25 00:05:10;;;;;;;12.53;11.33;;;;;;;;;;4883164;29;20707;-65
2023/08/25 00:07:39;;;;;;;11.70;10.70;;;;;;;;;;4887140;29;20695;-64
2023/08/25 00:10:07;;;;;;;13.33;12.03;;;;;;;;;;4876214;29;20666;-64
2023/08/25 00:12:37;;;;;;;16.17;11.70;;;;;;;;;;4876218;29;20664;-64
2023/08/25 00:15:05;;;;;;;12.97;11.23;;;;;;;;;;4878535;29;20671;-64
2023/08/25 00:17:34;;;;;;;11.60;10.70;;;;;;;;;;4897926;29;20650;-64
2023/08/25 00:20:05;;;;;;;11.30;10.30;;;;;;;;;;4890099;29;20697;-64
2023/08/25 00:22:35;;;;;;;13.77;10.30;;;;;;;;;;4887425;29;20647;-64
2023/08/25 00:25:04;;;;;;;11.80;10.80;;;;;;;;;;4892805;29;20681;-66
2023/08/25 00:27:32;;;;;;;11.87;10.67;;;;;;;;;;4885163;29;20739;-64
2023/08/25 00:30:00;;;;;;;10.97;9.73;;;;;;;;;;4897140;29;20670;-64
2023/08/25 00:32:29;;;;;;;11.30;10.40;;;;;;;;;;4884218;29;20656;-65
2023/08/25 00:34:57;;;;;;;11.40;10.40;;;;;;;;;;4897235;29;20659;-64
2023/08/25 00:37:26;;;;;;;13.63;11.40;;;;;;;;;;4881065;29;20642;-67
2023/08/25 00:39:56;;;;;;;11.60;10.50;;;;;;;;;;4881008;29;20641;-64
2023/08/25 00:42:24;;;;;;;10.90;9.90;;;;;;;;;;4897730;29;20635;-64
2023/08/25 00:44:52;;;;;;;11.03;10.03;;;;;;;;;;4896710;29;20683;-63
2023/08/25 00:47:21;;;;;;;11.40;10.30;;;;;;;;;;4897907;29;20645;-64
2023/08/25 00:49:49;;;;;;;11.17;9.70;;;;;;;;;;4896656;29;20631;-64
2023/08/25 00:52:18;;;;;;;11.47;10.00;;;;;;;;;;4896883;29;20666;-64
2023/08/25 00:54:46;;;;;;;10.93;10.03;;;;;;;;;;4897009;29;20642;-64
2023/08/25 00:57:16;;;;;;;12.00;10.43;;;;;;;;;;4896506;29;20699;-65
2023/08/25 00:59:45;;;;;;;11.57;10.60;;;;;;;;;;4879040;29;20722;-64
2023/08/25 01:02:14;;;;;;;11.60;10.43;;;;;;;;;;4865531;29;20797;-68
2023/08/25 01:04:42;;;;;;;13.90;11.30;;;;;;;;;;4866842;29;20691;-67
2023/08/25 01:07:11;;;;;;;11.20;10.00;;;;;;;;;;4858142;29;20616;-68
2023/08/25 01:09:39;;;;;;;11.47;10.20;;;;;;;;;;4856820;29;20634;-68
2023/08/25 01:12:11;;;;;;;11.93;10.83;;;;;;;;;;4879108;29;20765;-68
2023/08/25 01:14:44;;;;;;;11.27;10.07;;;;;;;;;;4861281;29;20979;-68
2023/08/25 01:17:16;;;;;;;10.83;9.83;;;;;;;;;;4861416;29;20626;-68
2023/08/25 01:20:06;;;;;;;12.03;10.97;;;;;;;;;;4845662;29;20647;-68
2023/08/25 01:22:35;;;;;;;12.37;11.13;;;;;;;;;;4864250;29;20647;-68
2023/08/25 01:25:19;;;;;;;11.33;10.30;;;;;;;;;;4846679;29;20619;-68
2023/08/25 01:27:49;;;;;;;12.77;11.00;;;;;;;;;;4859882;29;20616;-68
2023/08/25 01:30:18;;;;;;;12.50;11.20;;;;;;;;;;4860747;29;20679;-68
2023/08/25 01:32:47;;;;;;;10.40;9.37;;;;;;;;;;4862895;29;21200;-67
2023/08/25 01:35:16;;;;;;;11.17;9.77;;;;;;;;;;4877771;29;20642;-67
2023/08/25 01:37:50;;;;;;;11.33;10.23;;;;;;;;;;4878282;29;20641;-68
2023/08/25 01:40:25;;;;;;;11.40;10.20;;;;;;;;;;4878656;29;21243;-68
2023/08/25 01:42:56;;;;;;;9.10;8.20;;;;;;;;;;4879474;29;20597;-67
2023/08/25 01:45:24;;;;;;;9.27;8.47;;;;;;;;;;4879234;29;20608;-68
2023/08/25 01:47:53;;;;;;;8.30;7.70;;;;;;;;;;4879478;29;20623;-67
2023/08/25 01:50:22;;;;;;;11.90;9.20;;;;;;;;;;4878812;29;21026;-68
2023/08/25 01:52:51;;;;;;;9.13;8.30;;;;;;;;;;4879108;29;20627;-68
2023/08/25 01:55:21;;;;;;;9.77;8.97;;;;;;;;;;4876540;29;20627;-66
2023/08/25 01:57:49;;;;;;;10.33;9.33;;;;;;;;;;4868648;29;20642;-66
2023/08/25 02:00:19;;;;;;;11.50;8.87;;;;;;;;;;4857006;29;20658;-66
2023/08/25 02:02:47;;;;;;;11.10;8.77;;;;;;;;;;4861853;29;20631;-66
2023/08/25 02:05:15;;;;;;;9.57;8.67;;;;;;;;;;4866068;29;20689;-65
2023/08/25 02:07:44;;;;;;;8.03;7.37;;;;;;;;;;4861782;29;21035;-65
2023/08/25 02:10:15;;;;;;;7.90;7.20;;;;;;;;;;4876642;29;20616;-64
2023/08/25 02:12:44;;;;;;;9.10;8.30;;;;;;;;;;4874662;29;21269;-64
2023/08/25 02:15:13;;;;;;;9.47;8.33;;;;;;;;;;4862784;29;20623;-64
2023/08/25 02:17:41;;;;;;;9.27;8.57;;;;;;;;;;4877823;29;21223;-65
2023/08/25 02:20:10;;;;;;;10.13;9.07;;;;;;;;;;4860814;29;21248;-65
2023/08/25 02:22:38;;;;;;;9.80;8.97;;;;;;;;;;4847427;29;20692;-65
2023/08/25 02:25:07;;;;;;;10.33;8.73;;;;;;;;;;4860520;29;20615;-65
2023/08/25 02:27:35;;;;;;;9.63;8.83;;;;;;;;;;4859926;29;20691;-65
2023/08/25 02:30:05;;;;;;;9.90;9.00;;;;;;;;;;4873286;29;20639;-65
2023/08/25 02:32:34;;;;;;;8.77;8.07;;;;;;;;;;4864457;29;21181;-65
2023/08/25 02:35:06;;;;;;;9.47;8.60;;;;;;;;;;4861181;29;20628;-65
2023/08/25 02:37:35;;;;;;;9.90;9.00;;;;;;;;;;4860481;29;20684;-65
2023/08/25 02:40:04;;;;;;;11.27;7.70;;;;;;;;;;4873513;29;20669;-66
2023/08/25 02:42:32;;;;;;;13.10;9.40;;;;;;;;;;4876009;29;20642;-65
2023/08/25 02:45:01;;;;;;;10.03;9.13;;;;;;;;;;4878377;29;20642;-65
2023/08/25 02:47:30;;;;;;;7.63;7.13;;;;;;;;;;4845156;29;20985;-65
2023/08/25 02:49:59;;;;;;;8.93;7.80;;;;;;;;;;4857993;29;20619;-65
2023/08/25 02:52:28;;;;;;;8.40;7.80;;;;;;;;;;4876317;29;20638;-65
2023/08/25 02:54:56;;;;;;;7.57;6.83;;;;;;;;;;4854260;29;20632;-65
2023/08/25 02:57:24;;;;;;;14.70;8.00;;;;;;;;;;4865786;29;20635;-65
2023/08/25 02:59:52;;;;;;;9.50;7.83;;;;;;;;;;4847059;29;20678;-65
2023/08/25 03:02:21;;;;;;;8.87;8.03;;;;;;;;;;4857859;29;21210;-65
2023/08/25 03:04:51;;;;;;;8.40;7.57;;;;;;;;;;4848969;29;21252;-65
2023/08/25 03:07:19;;;;;;;7.97;7.40;;;;;;;;;;4859807;29;20619;-65
2023/08/25 03:09:48;;;;;;;9.13;8.23;;;;;;;;;;4861810;29;20627;-65
2023/08/25 03:12:16;;;;;;;8.17;7.47;;;;;;;;;;4877530;29;20691;-65
2023/08/25 03:14:44;;;;;;;7.93;7.33;;;;;;;;;;4878307;29;20686;-66
2023/08/25 03:17:14;;;;;;;8.10;7.40;;;;;;;;;;4860891;29;20618;-65
2023/08/25 03:19:43;;;;;;;8.50;7.77;;;;;;;;;;4861089;29;20671;-65
2023/08/25 03:22:13;;;;;;;8.50;7.83;;;;;;;;;;4861004;29;20670;-65
2023/08/25 03:24:41;;;;;;;14.50;9.03;;;;;;;;;;4861099;29;20607;-65
2023/08/25 03:27:10;;;;;;;10.37;9.33;;;;;;;;;;4877552;29;20623;-65
2023/08/25 03:29:38;;;;;;;11.40;9.50;;;;;;;;;;4860960;29;20686;-65
2023/08/25 03:32:07;;;;;;;10.70;8.57;;;;;;;;;;4877676;29;20982;-65
2023/08/25 03:34:35;;;;;;;9.67;8.80;;;;;;;;;;4858971;29;21190;-65
2023/08/25 03:37:05;;;;;;;11.20;8.67;;;;;;;;;;4859992;29;20639;-65
2023/08/25 03:39:35;;;;;;;11.43;10.33;;;;;;;;;;4883895;29;20735;-63
2023/08/25 03:42:04;;;;;;;10.27;9.30;;;;;;;;;;4893624;29;20658;-63
2023/08/25 03:44:32;;;;;;;13.20;10.17;;;;;;;;;;4894120;29;20667;-65
2023/08/25 03:47:00;;;;;;;10.53;9.63;;;;;;;;;;4881190;29;20628;-63
2023/08/25 03:49:30;;;;;;;9.27;8.43;;;;;;;;;;4877117;29;20663;-64
2023/08/25 03:51:59;;;;;;;10.70;9.70;;;;;;;;;;4892047;29;20651;-63
2023/08/25 03:54:31;;;;;;;8.90;8.03;;;;;;;;;;4899220;29;20890;-63
2023/08/25 03:57:01;;;;;;;11.20;10.10;;;;;;;;;;4898988;29;20595;-63
2023/08/25 03:59:30;;;;;;;10.33;9.47;;;;;;;;;;4882504;29;20686;-63
2023/08/25 04:01:59;;;;;;;16.07;10.80;;;;;;;;;;4887720;29;21074;-63
2023/08/25 04:04:28;;;;;;;12.03;10.73;;;;;;;;;;4879315;29;20719;-63
2023/08/25 04:06:57;;;;;;;9.73;8.73;;;;;;;;;;4872410;29;20924;-63
2023/08/25 04:09:25;;;;;;;11.43;10.37;;;;;;;;;;4880463;29;20679;-66
2023/08/25 04:12:00;;;;;;;11.10;9.53;;;;;;;;;;4868150;29;20708;-64
2023/08/25 04:14:28;;;;;;;11.57;9.67;;;;;;;;;;4863884;29;20648;-64
2023/08/25 04:16:57;;;;;;;12.57;9.47;;;;;;;;;;4871912;29;20656;-64
2023/08/25 04:19:27;;;;;;;11.73;10.53;;;;;;;;;;4851261;29;20641;-66
2023/08/25 04:21:55;;;;;;;10.40;9.50;;;;;;;;;;4866319;29;20673;-66
2023/08/25 04:24:23;;;;;;;10.40;9.30;;;;;;;;;;4866397;29;20641;-63
2023/08/25 04:26:53;;;;;;;11.03;10.13;;;;;;;;;;4859456;29;20650;-63
2023/08/25 04:29:23;;;;;;;10.70;9.70;;;;;;;;;;4867315;29;20654;-63
2023/08/25 04:31:52;;;;;;;10.87;9.90;;;;;;;;;;4865967;29;20649;-63
2023/08/25 04:34:35;;;;;;;9.63;8.80;;;;;;;;;;4864447;29;20666;-65
2023/08/25 04:37:03;;;;;;;18.10;9.37;;;;;;;;;;4871853;29;20676;-64
2023/08/25 04:39:32;;;;;;;10.07;9.00;;;;;;;;;;4856023;29;20624;-63
2023/08/25 04:42:01;;;;;;;11.07;10.07;;;;;;;;;;4882269;29;20680;-64
2023/08/25 04:44:30;;;;;;;10.70;9.37;;;;;;;;;;4879021;29;20649;-64
2023/08/25 04:46:59;;;;;;;10.77;9.63;;;;;;;;;;4853059;29;20655;-64
2023/08/25 04:49:27;;;;;;;11.10;10.10;;;;;;;;;;4850089;29;20829;-65
2023/08/25 04:51:55;;;;;;;10.17;9.47;;;;;;;;;;4853454;29;20671;-66
2023/08/25 04:54:24;;;;;;;9.47;8.67;;;;;;;;;;4883047;29;20639;-63
2023/08/25 04:56:54;;;;;;;10.27;9.30;;;;;;;;;;4868149;29;20622;-63
2023/08/25 04:59:22;;;;;;;12.93;10.30;;;;;;;;;;4867075;29;20751;-66
2023/08/25 05:01:53;;;;;;;11.70;10.57;;;;;;;;;;4856882;29;20722;-64
2023/08/25 05:04:21;;;;;;;15.90;10.27;;;;;;;;;;4847283;29;20685;-65
2023/08/25 05:06:49;;;;;;;11.83;10.60;;;;;;;;;;4877338;29;20683;-64
2023/08/25 05:09:18;;;;;;;9.40;8.70;;;;;;;;;;4867575;29;21194;-66
2023/08/25 05:11:46;;;;;;;10.43;9.43;;;;;;;;;;4883532;29;20604;-65
2023/08/25 05:14:14;;;;;;;10.50;9.60;;;;;;;;;;4867082;29;20635;-64
2023/08/25 05:16:44;;;;;;;11.03;9.80;;;;;;;;;;4852144;29;20611;-63
2023/08/25 05:19:24;;;;;;;14.73;9.63;;;;;;;;;;4866583;29;20604;-64
2023/08/25 05:21:52;;;;;;;10.30;9.43;;;;;;;;;;4867779;29;20644;-65
2023/08/25 05:24:22;;;;;;;16.30;10.10;;;;;;;;;;4868972;29;20631;-66
2023/08/25 05:26:53;;;;;;;17.17;9.37;;;;;;;;;;4869487;29;20600;-64
2023/08/25 05:29:23;;;;;;;9.40;8.53;;;;;;;;;;4869034;29;20664;-64
2023/08/25 05:31:51;;;;;;;12.73;9.83;;;;;;;;;;4885505;29;20628;-64
2023/08/25 05:34:32;;;;;;;10.87;8.77;;;;;;;;;;4868627;29;20588;-66
2023/08/25 05:37:05;;;;;;;9.17;7.80;;;;;;;;;;4868629;29;21118;-64
2023/08/25 05:39:33;;;;;;;8.30;7.50;;;;;;;;;;4877967;29;20643;-66
2023/08/25 05:42:02;;;;;;;13.17;8.27;;;;;;;;;;4872908;29;20769;-64
2023/08/25 05:44:30;;;;;;;11.00;8.73;;;;;;;;;;4865637;29;20660;-65
2023/08/25 05:46:59;;;;;;;14.93;9.03;;;;;;;;;;4865372;29;20657;-66
2023/08/25 05:49:27;;;;;;;13.27;8.40;;;;;;;;;;4867377;29;20648;-64
2023/08/25 05:51:57;;;;;;;12.10;7.53;;;;;;;;;;4884647;29;20672;-66
2023/08/25 05:54:26;;;;;;;14.77;7.90;;;;;;;;;;4868924;29;20616;-66
2023/08/25 05:56:54;;;;;;;15.33;7.90;;;;;;;;;;4868414;29;20628;-66
2023/08/25 05:59:22;;;;;;;11.30;6.50;;;;;;;;;;4868779;29;20621;-64
2023/08/25 06:01:51;;;;;;;10.43;7.73;;;;;;;;;;4874931;29;20708;-66
2023/08/25 06:04:19;;;;;;;11.10;8.90;;;;;;;;;;4878000;29;20740;-66
2023/08/25 06:06:47;;;;;;;16.40;7.53;;;;;;;;;;4882676;29;20678;-66
2023/08/25 06:09:17;;;;;;;11.13;7.40;;;;;;;;;;4903089;29;20676;-66
2023/08/25 06:11:45;;;;;;;14.00;7.70;;;;;;;;;;4895801;29;20638;-64
2023/08/25 06:14:14;;;;;;;7.80;6.83;;;;;;;;;;4895372;29;20670;-64
2023/08/25 06:16:42;;;;;;;8.40;7.60;;;;;;;;;;4902015;29;20651;-64
2023/08/25 06:19:11;;;;;;;7.97;7.27;;;;;;;;;;4895710;29;20644;-64
2023/08/25 06:21:39;;;;;;;8.57;7.67;;;;;;;;;;4885047;29;20730;-66
2023/08/25 06:24:07;;;;;;;8.20;7.60;;;;;;;;;;4890868;29;20623;-64
2023/08/25 06:26:37;;;;;;;9.60;7.97;;;;;;;;;;4891951;29;20658;-65
2023/08/25 06:29:05;;;;;;;8.43;7.57;;;;;;;;;;4890852;29;20639;-64
2023/08/25 06:31:33;;;;;;;9.07;8.27;;;;;;;;;;4865586;29;20695;-63
2023/08/25 06:34:03;;;;;;;8.53;7.67;;;;;;;;;;4892803;29;20660;-66
2023/08/25 06:36:32;;;;;;;8.43;7.53;;;;;;;;;;4893163;29;20631;-65
2023/08/25 06:39:00;;;;;;;7.80;7.20;;;;;;;;;;4894318;29;20620;-66
2023/08/25 06:41:28;;;;;;;9.40;7.10;;;;;;;;;;4891506;29;20675;-67
2023/08/25 06:44:00;;;;;;;10.30;7.43;;;;;;;;;;4876102;29;20632;-66
2023/08/25 06:46:28;;;;;;;8.17;7.33;;;;;;;;;;4874381;29;20664;-66
2023/08/25 06:48:56;;;;;;;8.70;7.50;;;;;;;;;;4895185;29;20631;-66
2023/08/25 06:51:25;;;;;;;10.30;7.17;;;;;;;;;;4893978;29;20635;-66
2023/08/25 06:53:53;;;;;;;10.27;9.23;;;;;;;;;;4894188;29;20655;-64
2023/08/25 06:56:21;;;;;;;10.33;7.70;;;;;;;;;;4896865;29;20631;-64
2023/08/25 06:58:49;;;;;;;8.40;7.60;;;;;;;;;;4909794;29;20686;-66
2023/08/25 07:01:19;;;;;;;9.37;7.70;;;;;;;;;;4903711;29;20698;-66
2023/08/25 07:03:47;;;;;;;10.60;8.87;;;;;;;;;;4916517;29;20682;-65
2023/08/25 07:06:16;;;;;;;11.33;7.90;;;;;;;;;;4887009;29;20685;-66
2023/08/25 07:08:44;;;;;;;19.50;10.00;;;;;;;;;;4889440;29;20655;-66
2023/08/25 07:11:12;;;;;;;10.33;7.60;;;;;;;;;;4895527;29;20708;-64
2023/08/25 07:13:40;;;;;;;8.97;8.17;;;;;;;;;;4906432;29;20638;-67
2023/08/25 07:16:08;;;;;;;8.93;7.77;;;;;;;;;;4894142;29;20662;-65
2023/08/25 07:18:38;;;;;;;8.00;7.30;;;;;;;;;;4883331;29;20655;-66
2023/08/25 07:21:07;;;;;;;8.53;7.83;;;;;;;;;;4885087;29;20716;-65
2023/08/25 07:23:35;;;;;;;9.07;7.47;;;;;;;;;;4890569;29;20672;-67
2023/08/25 07:26:04;;;;;;;8.13;7.47;;;;;;;;;;4897086;29;20654;-65
2023/08/25 07:28:32;;;;;;;9.80;7.30;;;;;;;;;;4894491;29;20658;-65
2023/08/25 07:31:00;;;;;;;9.33;8.30;;;;;;;;;;4875275;29;20651;-67
2023/08/25 07:33:28;;;;;;;10.27;7.70;;;;;;;;;;4894200;29;20648;-65
2023/08/25 07:35:58;;;;;;;7.70;7.00;;;;;;;;;;4891867;29;20668;-66
2023/08/25 07:38:26;;;;;;;11.43;6.23;;;;;;;;;;4890687;29;20652;-66
2023/08/25 07:40:55;;;;;;;7.10;6.40;;;;;;;;;;4897517;29;20670;-66
2023/08/25 07:43:23;;;;;;;6.20;5.33;;;;;;;;;;4890551;29;20627;-65
2023/08/25 07:45:51;;;;;;;5.93;4.93;;;;;;;;;;4888572;29;20707;-66
2023/08/25 07:48:20;;;;;;;13.80;4.93;;;;;;;;;;4896729;29;20672;-66
2023/08/25 07:50:48;;;;;;;7.63;4.77;;;;;;;;;;4883758;29;20733;-65
2023/08/25 07:53:18;;;;;;;5.33;4.83;;;;;;;;;;4901222;29;20660;-66
2023/08/25 07:55:46;;;;;;;5.17;4.67;;;;;;;;;;4899637;29;20635;-66
2023/08/25 07:58:14;;;;;;;11.53;5.37;;;;;;;;;;4899714;29;20655;-66
2023/08/25 08:00:44;;;;;;;4.40;4.03;;;;;;;;;;4895286;24;20782;-86
2023/08/25 08:03:13;;;;;;;3.57;3.37;;;;;;;;;;4868815;29;20757;-84
2023/08/25 08:05:41;;;;;;;5.20;3.50;;;;;;;;;;4864263;29;20640;-83
2023/08/25 08:08:10;;;;;;;6.43;3.47;;;;;;;;;;4871414;29;20676;-83
2023/08/25 08:10:40;;;;;;;4.27;3.43;;;;;;;;;;4856060;29;21223;-83
2023/08/25 08:13:09;;;;;;;6.20;3.30;;;;;;;;;;4884628;29;20591;-84
2023/08/25 08:15:37;;;;;;;3.40;3.20;;;;;;;;;;4882368;29;21119;-83
2023/08/25 08:18:08;;;;;;;4.10;3.80;;;;;;;;;;4865976;29;20615;-83
2023/08/25 08:20:36;;;;;;;3.67;3.37;;;;;;;;;;4864324;29;20722;-84
2023/08/25 08:23:05;;;;;;;3.40;3.20;;;;;;;;;;4849584;29;21260;-83
2023/08/25 08:25:36;;;;;;;3.83;3.30;;;;;;;;;;4846866;29;20722;-84
2023/08/25 08:28:06;;;;;;;4.87;3.30;;;;;;;;;;4862372;29;20698;-84
2023/08/25 08:30:35;;;;;;;3.17;2.60;;;;;;;;;;4874048;29;20701;-84
2023/08/25 08:33:04;;;;;;;4.10;2.63;;;;;;;;;;4867057;29;20730;-84
2023/08/25 08:35:32;;;;;;;2.50;2.40;;;;;;;;;;4872406;29;20730;-86
2023/08/25 08:38:01;;;;;;;7.33;3.10;;;;;;;;;;4865827;29;20718;-86
2023/08/25 08:40:31;;;;;;;4.43;2.40;;;;;;;;;;4856813;29;20737;-86
2023/08/25 08:43:01;;;;;;;5.40;3.03;;;;;;;;;;4874831;29;20742;-85
2023/08/25 08:45:34;;;;;;;3.47;3.17;;;;;;;;;;4852678;29;22062;-85
2023/08/25 08:48:03;;;;;;;4.80;3.00;;;;;;;;;;4865434;29;20615;-86
2023/08/25 08:50:32;;;;;;;2.80;2.60;;;;;;;;;;4880674;29;20618;-87
2023/08/25 08:53:01;;;;;;;5.77;2.87;;;;;;;;;;4876111;29;20710;-86
2023/08/25 08:55:32;;;;;;;2.90;2.70;;;;;;;;;;4875547;29;20772;-86
2023/08/25 08:58:03;;;;;;;3.80;2.50;;;;;;;;;;4879478;29;20619;-85
2023/08/25 09:00:35;;;;;;;2.90;2.70;;;;;;;;;;4862662;29;20831;-84
2023/08/25 09:03:09;;;;;;;5.30;2.83;;;;;;;;;;4864812;29;20679;-86
2023/08/25 09:05:39;;;;;;;2.60;2.40;;;;;;;;;;4855244;29;20706;-88
2023/08/25 09:08:11;;;;;;;2.30;2.10;;;;;;;;;;4860575;29;20788;-85
2023/08/25 09:10:40;;;;;;;3.90;2.73;;;;;;;;;;4863997;29;20636;-86
2023/08/25 09:13:09;;;;;;;6.10;2.90;;;;;;;;;;4845316;29;21314;-85
2023/08/25 09:15:49;;;;;;;4.43;2.27;;;;;;;;;;4860649;29;20725;-87
2023/08/25 09:18:17;;;;;;;2.63;2.43;;;;;;;;;;4875957;29;21226;-88
2023/08/25 09:20:45;;;;;;;4.17;2.83;;;;;;;;;;4868818;29;20632;-86
2023/08/25 09:23:17;;;;;;;2.83;2.63;;;;;;;;;;4881230;29;20667;-86
2023/08/25 09:25:45;;;;;;;3.23;2.70;;;;;;;;;;4873089;29;20714;-86
2023/08/25 09:28:14;;;;;;;4.17;2.87;;;;;;;;;;4885981;29;20644;-86
2023/08/25 09:30:44;;;;;;;2.80;2.60;;;;;;;;;;4856547;29;20643;-86
2023/08/25 09:33:14;;;;;;;2.83;2.63;;;;;;;;;;4856848;29;20726;-85
2023/08/25 09:35:43;;;;;;;3.77;2.63;;;;;;;;;;4852696;29;20667;-85
2023/08/25 09:38:22;;;;;;;3.57;2.73;;;;;;;;;;4874116;29;20648;-85
2023/08/25 09:40:51;;;;;;;2.83;2.50;;;;;;;;;;4885815;29;20677;-85
2023/08/25 09:43:29;;;;;;;2.80;2.60;;;;;;;;;;4889794;29;20730;-84
2023/08/25 09:46:02;;;;;;;3.70;2.97;;;;;;;;;;4892539;29;20638;-84
2023/08/25 09:48:33;;;;;;;7.00;3.17;;;;;;;;;;4874202;29;20698;-86
2023/08/25 09:51:02;;;;;;;2.80;2.70;;;;;;;;;;4881300;29;21252;-87
2023/08/25 09:53:33;;;;;;;2.90;2.73;;;;;;;;;;4873683;29;20697;-86
2023/08/25 09:56:04;;;;;;;3.23;2.90;;;;;;;;;;4871908;29;20703;-85
2023/08/25 09:58:33;;;;;;;3.33;3.00;;;;;;;;;;4853119;29;20655;-85
2023/08/25 10:01:06;;;;;;;3.03;2.83;;;;;;;;;;4859942;29;20703;-84
2023/08/25 10:03:38;;;;;;;3.43;3.07;;;;;;;;;;4874450;29;20686;-86
2023/08/25 10:06:07;;;;;;;3.03;2.70;;;;;;;;;;4875455;29;20699;-85
2023/08/25 10:08:39;;;;;;;3.60;3.30;;;;;;;;;;4868354;29;20760;-84
2023/08/25 10:11:10;;;;;;;6.27;3.40;;;;;;;;;;4870534;29;20690;-86
2023/08/25 10:13:39;;;;;;;6.23;3.33;;;;;;;;;;4844719;29;21217;-85
2023/08/25 10:16:12;;;;;;;2.63;2.43;;;;;;;;;;4846829;29;20753;-84
2023/08/25 10:18:45;;;;;;;2.77;2.60;;;;;;;;;;4873753;29;20648;-84
2023/08/25 10:21:17;;;;;;;3.27;3.10;;;;;;;;;;4879132;29;20662;-84
2023/08/25 10:23:45;;;;;;;5.17;3.40;;;;;;;;;;4863938;29;20731;-84
2023/08/25 10:26:14;;;;;;;5.97;3.60;;;;;;;;;;4836446;29;20629;-85
2023/08/25 10:28:42;;;;;;;4.03;3.70;;;;;;;;;;4869077;29;20795;-85
2023/08/25 10:31:13;;;;;;;3.40;3.20;;;;;;;;;;4864641;29;20699;-85
2023/08/25 10:33:47;;;;;;;3.87;3.53;;;;;;;;;;4864570;29;20797;-84
2023/08/25 10:36:19;;;;;;;6.23;3.97;;;;;;;;;;4878460;29;21048;-85
2023/08/25 10:38:48;;;;;;;5.20;3.80;;;;;;;;;;4878017;29;20805;-84
2023/08/25 10:41:18;;;;;;;3.33;3.10;;;;;;;;;;4877181;29;20727;-84
2023/08/25 10:43:47;;;;;;;4.27;3.97;;;;;;;;;;4865228;29;21082;-85
2023/08/25 10:46:19;;;;;;;4.17;3.80;;;;;;;;;;4877262;29;20718;-85
2023/08/25 10:49:06;;;;;;;6.53;3.40;;;;;;;;;;4868140;29;20701;-85
2023/08/25 10:51:34;;;;;;;4.87;3.80;;;;;;;;;;4856783;29;20623;-84
2023/08/25 10:54:03;;;;;;;6.03;3.60;;;;;;;;;;4849116;29;20739;-85
2023/08/25 10:56:31;;;;;;;4.30;3.90;;;;;;;;;;4865690;29;20727;-85
2023/08/25 10:59:04;;;;;;;4.30;4.00;;;;;;;;;;4864695;29;20750;-84
2023/08/25 11:01:53;;;;;;;4.47;4.07;;;;;;;;;;4864256;29;20766;-84
2023/08/25 11:04:29;;;;;;;4.70;4.30;;;;;;;;;;4862099;29;20684;-85
2023/08/25 11:06:57;;;;;;;4.37;3.97;;;;;;;;;;4848469;29;20765;-85
2023/08/25 11:09:35;;;;;;;4.30;3.90;;;;;;;;;;4849957;29;20753;-85
2023/08/25 11:12:06;;;;;;;5.77;4.50;;;;;;;;;;4846524;29;20620;-85
2023/08/25 11:14:35;;;;;;;4.43;4.03;;;;;;;;;;4829322;29;20640;-85
2023/08/25 11:17:05;;;;;;;5.10;4.43;;;;;;;;;;4866078;29;20700;-85
2023/08/25 11:19:36;;;;;;;4.67;4.27;;;;;;;;;;4845919;29;20738;-84
2023/08/25 11:22:05;;;;;;;4.20;3.87;;;;;;;;;;4858228;29;20634;-83
2023/08/25 11:24:34;;;;;;;5.27;4.57;;;;;;;;;;4861136;29;20679;-84
2023/08/25 11:27:06;;;;;;;4.30;4.00;;;;;;;;;;4864850;29;20735;-84
2023/08/25 11:29:34;;;;;;;4.27;3.97;;;;;;;;;;4864499;29;20632;-84
2023/08/25 11:32:02;;;;;;;5.17;4.30;;;;;;;;;;4862024;29;21063;-84
2023/08/25 11:34:31;;;;;;;5.80;4.83;;;;;;;;;;4861249;29;21213;-83
2023/08/25 11:37:01;;;;;;;4.93;4.30;;;;;;;;;;4858795;29;20641;-84
2023/08/25 11:39:29;;;;;;;4.10;3.90;;;;;;;;;;4862122;29;21082;-84
2023/08/25 11:41:57;;;;;;;5.00;4.57;;;;;;;;;;4833041;29;20711;-84
2023/08/25 11:44:25;;;;;;;5.03;4.63;;;;;;;;;;4863182;29;20680;-85
2023/08/25 11:46:54;;;;;;;5.53;4.53;;;;;;;;;;4847862;29;20636;-84
2023/08/25 11:49:22;;;;;;;6.70;4.63;;;;;;;;;;4860580;29;20604;-84
2023/08/25 11:51:50;;;;;;;5.00;4.43;;;;;;;;;;4864300;29;20660;-85
2023/08/25 11:54:20;;;;;;;5.67;5.10;;;;;;;;;;4866322;29;20668;-83
2023/08/25 11:56:51;;;;;;;5.00;4.23;;;;;;;;;;4871450;29;20781;-84
2023/08/25 11:59:19;;;;;;;8.40;4.63;;;;;;;;;;4871681;29;20738;-87
2023/08/25 12:01:50;;;;;;;4.83;4.37;;;;;;;;;;4866370;29;21070;-87
2023/08/25 12:04:23;;;;;;;4.83;4.47;;;;;;;;;;4877073;29;20664;-87
2023/08/25 12:06:53;;;;;;;5.30;4.80;;;;;;;;;;4848707;29;20628;-88
2023/08/25 12:09:24;;;;;;;5.43;4.70;;;;;;;;;;4865715;29;20675;-89
2023/08/25 12:11:52;;;;;;;6.53;4.37;;;;;;;;;;4862055;29;20701;-87
2023/08/25 12:14:27;;;;;;;4.70;4.30;;;;;;;;;;4881158;29;21080;-87
2023/08/25 12:16:56;;;;;;;4.97;4.53;;;;;;;;;;4887694;29;20593;-87
2023/08/25 12:19:26;;;;;;;5.03;4.40;;;;;;;;;;4884269;29;20715;-87
2023/08/25 12:21:55;;;;;;;5.40;5.00;;;;;;;;;;4870457;29;20627;-87
2023/08/25 12:24:25;;;;;;;5.73;4.90;;;;;;;;;;4873002;29;20769;-88
2023/08/25 12:26:53;;;;;;;4.50;4.20;;;;;;;;;;4873500;29;20619;-88
2023/08/25 12:29:22;;;;;;;6.70;5.40;;;;;;;;;;4856048;29;20682;-87
2023/08/25 12:31:50;;;;;;;4.43;4.13;;;;;;;;;;4880059;29;21249;-88
2023/08/25 12:34:19;;;;;;;8.70;5.37;;;;;;;;;;4868584;29;22456;-86
2023/08/25 12:36:49;;;;;;;5.47;4.90;;;;;;;;;;4862273;29;20734;-88
2023/08/25 12:39:19;;;;;;;5.53;4.90;;;;;;;;;;4865190;29;20651;-89
2023/08/25 12:41:48;;;;;;;5.57;4.97;;;;;;;;;;4872227;29;20699;-90
2023/08/25 12:44:16;;;;;;;6.50;4.77;;;;;;;;;;4890069;29;20722;-90
2023/08/25 12:46:45;;;;;;;7.00;4.97;;;;;;;;;;4889181;29;20727;-89
2023/08/25 12:49:13;;;;;;;5.27;4.57;;;;;;;;;;4859292;29;20729;-87
2023/08/25 12:51:41;;;;;;;5.10;4.70;;;;;;;;;;4889397;29;20730;-88
2023/08/25 12:54:13;;;;;;;5.20;4.90;;;;;;;;;;4872977;29;20611;-88
2023/08/25 12:56:42;;;;;;;6.23;5.43;;;;;;;;;;4869905;29;20706;-88
2023/08/25 12:59:11;;;;;;;6.13;5.53;;;;;;;;;;4871955;29;20838;-86
2023/08/25 13:01:40;;;;;;;7.67;5.63;;;;;;;;;;4856859;29;20599;-88
2023/08/25 13:04:08;;;;;;;6.43;5.80;;;;;;;;;;4882993;29;20674;-88
2023/08/25 13:06:36;;;;;;;7.90;5.43;;;;;;;;;;4854500;29;20607;-88
2023/08/25 13:09:05;;;;;;;8.53;6.10;;;;;;;;;;4888290;29;20751;-88
2023/08/25 13:11:34;;;;;;;6.27;5.80;;;;;;;;;;4887797;29;20638;-87
2023/08/25 13:14:03;;;;;;;8.63;6.73;;;;;;;;;;4883025;29;20782;-87
2023/08/25 13:16:32;;;;;;;6.10;5.63;;;;;;;;;;4872559;29;20622;-87
2023/08/25 13:19:01;;;;;;;6.73;5.93;;;;;;;;;;4884727;29;20698;-87
2023/08/25 13:21:32;;;;;;;6.07;5.57;;;;;;;;;;4871757;29;20721;-87
2023/08/25 13:24:00;;;;;;;5.60;5.30;;;;;;;;;;4887466;29;20746;-87
2023/08/25 13:26:29;;;;;;;5.97;5.57;;;;;;;;;;4887545;29;20725;-87
2023/08/25 13:28:57;;;;;;;5.97;5.53;;;;;;;;;;4869981;29;20998;-87
2023/08/25 13:31:25;;;;;;;6.53;6.03;;;;;;;;;;4872905;29;20616;-87
2023/08/25 13:33:55;;;;;;;6.47;5.83;;;;;;;;;;4854851;29;20695;-87
2023/08/25 13:36:24;;;;;;;6.90;6.50;;;;;;;;;;4856099;29;20710;-83
2023/08/25 13:38:52;;;;;;;6.50;5.97;;;;;;;;;;4886109;29;21190;-84
2023/08/25 13:41:21;;;;;;;6.70;6.20;;;;;;;;;;4889049;29;20722;-85
2023/08/25 13:43:49;;;;;;;7.47;6.83;;;;;;;;;;4854232;29;20723;-85
2023/08/25 13:46:18;;;;;;;7.10;6.60;;;;;;;;;;4855020;29;20691;-84
2023/08/25 13:48:46;;;;;;;9.53;6.97;;;;;;;;;;4884786;29;20771;-86
2023/08/25 13:51:16;;;;;;;6.57;6.23;;;;;;;;;;4877372;29;20655;-86
2023/08/25 13:53:45;;;;;;;7.30;6.80;;;;;;;;;;4875897;29;20614;-89
2023/08/25 13:56:14;;;;;;;7.10;6.63;;;;;;;;;;4861763;29;20639;-89
2023/08/25 13:58:44;;;;;;;7.43;6.93;;;;;;;;;;4847900;29;20631;-88
2023/08/25 14:01:20;;;;;;;7.07;6.57;;;;;;;;;;4878619;29;20675;-87
2023/08/25 14:03:49;;;;;;;7.67;7.27;;;;;;;;;;4894961;29;20658;-87
2023/08/25 14:06:21;;;;;;;7.77;7.33;;;;;;;;;;4861506;29;20682;-87
2023/08/25 14:08:51;;;;;;;8.50;7.87;;;;;;;;;;4877235;29;20694;-88
2023/08/25 14:11:19;;;;;;;8.40;7.80;;;;;;;;;;4878725;29;20623;-88
2023/08/25 14:13:52;;;;;;;7.70;7.20;;;;;;;;;;4894535;29;20659;-87
2023/08/25 14:16:24;;;;;;;8.30;7.83;;;;;;;;;;4862396;29;20695;-88
2023/08/25 14:18:54;;;;;;;8.67;7.83;;;;;;;;;;4861126;29;20663;-88
2023/08/25 14:21:25;;;;;;;8.27;7.80;;;;;;;;;;4863761;29;20627;-87
2023/08/25 14:23:55;;;;;;;9.10;8.40;;;;;;;;;;4877659;29;20568;-87
2023/08/25 14:26:24;;;;;;;8.63;8.13;;;;;;;;;;4879105;29;20619;-87
2023/08/25 14:28:54;;;;;;;8.30;7.90;;;;;;;;;;4878146;29;20710;-85
2023/08/25 14:31:22;;;;;;;9.20;8.50;;;;;;;;;;4876342;29;20725;-87
2023/08/25 14:33:52;;;;;;;8.90;8.30;;;;;;;;;;4861986;29;21157;-86
2023/08/25 14:36:21;;;;;;;8.40;7.90;;;;;;;;;;4877213;29;20632;-86
2023/08/25 14:38:51;;;;;;;8.30;7.77;;;;;;;;;;4860656;29;20703;-86
2023/08/25 14:41:19;;;;;;;8.57;7.97;;;;;;;;;;4887899;29;20702;-84
2023/08/25 14:43:48;;;;;;;8.33;7.70;;;;;;;;;;4873072;29;20718;-84
2023/08/25 14:46:16;;;;;;;9.33;8.40;;;;;;;;;;4887826;29;20654;-86
2023/08/25 14:48:46;;;;;;;8.60;8.10;;;;;;;;;;4873227;29;20798;-85